createdAt,value
2023-03-26T00:01:33.526Z,3.00
2023-03-26T00:06:36.661Z,3.47
2023-03-26T00:09:06.181Z,2.55
2023-03-26T00:11:35.073Z,2.80
2023-03-26T00:14:02.675Z,2.78
2023-03-26T00:16:32.175Z,3.33
2023-03-26T00:19:01.247Z,3.22
2023-03-26T00:21:30.125Z,3.78
2023-03-26T00:24:04.226Z,2.90
2023-03-26T00:26:33.497Z,4.40
2023-03-26T00:29:00.656Z,3.33
2023-03-26T00:31:27.754Z,3.00
2023-03-26T00:33:55.798Z,3.10
2023-03-26T00:36:25.704Z,3.15
2023-03-26T00:38:53.760Z,3.35
2023-03-26T00:41:26.189Z,3.22
2023-03-26T00:43:57.123Z,2.65
2023-03-26T00:46:26.565Z,3.45
2023-03-26T00:48:53.908Z,2.88
2023-03-26T00:51:21.818Z,3.58
2023-03-26T00:53:50.034Z,4.05
2023-03-26T00:56:17.327Z,3.08
2023-03-26T00:58:56.512Z,3.40
2023-03-26T01:01:30.656Z,4.20
2023-03-26T01:04:30.638Z,2.83
2023-03-26T01:07:20.344Z,3.58
2023-03-26T01:09:55.889Z,3.25
2023-03-26T01:12:35.940Z,3.40
2023-03-26T01:15:08.604Z,2.92
2023-03-26T01:17:43.304Z,3.13
2023-03-26T01:20:25.650Z,3.42
2023-03-26T01:26:05.734Z,3.25
2023-03-26T01:28:48.893Z,2.45
2023-03-26T01:32:03.301Z,2.88
2023-03-26T01:35:06.592Z,2.17
2023-03-26T01:38:13.572Z,2.90
2023-03-26T01:41:21.890Z,2.47
2023-03-26T01:44:15.762Z,2.17
2023-03-26T01:46:46.667Z,2.63
2023-03-26T01:49:16.309Z,1.90
2023-03-26T01:51:48.648Z,2.25
2023-03-26T01:54:24.016Z,1.83
2023-03-26T01:57:49.526Z,1.88
2023-03-26T02:01:05.424Z,2.42
2023-03-26T02:03:43.481Z,2.35
2023-03-26T02:09:28.399Z,2.22
2023-03-26T02:11:59.033Z,1.70
2023-03-26T02:14:36.979Z,2.10
2023-03-26T02:17:15.554Z,2.70
2023-03-26T02:19:49.313Z,1.80
2023-03-26T02:22:33.778Z,2.08
2023-03-26T02:25:05.217Z,2.10
2023-03-26T02:27:37.729Z,2.30
2023-03-26T02:30:09.998Z,1.35
2023-03-26T02:32:39.760Z,2.22
2023-03-26T02:35:13.511Z,2.17
2023-03-26T02:37:45.365Z,1.75
2023-03-26T02:40:19.787Z,1.45
2023-03-26T02:42:48.570Z,2.88
2023-03-26T02:45:21.147Z,1.83
2023-03-26T02:47:53.438Z,1.95
2023-03-26T02:50:27.924Z,1.73
2023-03-26T02:53:09.113Z,1.65
2023-03-26T02:55:39.025Z,2.33
2023-03-26T03:01:10.812Z,2.38
2023-03-26T03:03:43.526Z,1.65
2023-03-26T03:06:20.240Z,1.73
2023-03-26T03:08:57.951Z,1.80
2023-03-26T03:11:36.773Z,2.35
2023-03-26T03:14:09.653Z,1.95
2023-03-26T03:16:40.131Z,1.67
2023-03-26T03:19:13.896Z,2.25
2023-03-26T03:21:50.518Z,1.80
2023-03-26T03:24:18.832Z,1.92
2023-03-26T03:27:05.459Z,1.92
2023-03-26T03:29:37.116Z,2.25
2023-03-26T03:32:04.965Z,2.05
2023-03-26T03:34:38.899Z,1.75
2023-03-26T03:37:09.987Z,1.63
2023-03-26T03:39:57.422Z,1.90
2023-03-26T03:42:31.226Z,1.98
2023-03-26T03:45:02.891Z,2.03
2023-03-26T03:47:32.839Z,1.90
2023-03-26T03:50:02.602Z,2.45
2023-03-26T03:52:34.287Z,1.75
2023-03-26T03:55:08.681Z,1.65
2023-03-26T03:57:44.952Z,2.55
2023-03-26T04:22:07.612Z,1.23
2023-03-26T04:24:38.181Z,1.10
2023-03-26T04:27:06.873Z,1.52
2023-03-26T04:29:45.189Z,1.20
2023-03-26T04:32:26.470Z,1.75
2023-03-26T04:34:53.812Z,2.42
2023-03-26T04:37:39.501Z,1.50
2023-03-26T04:40:12.370Z,2.13
2023-03-26T04:42:46.204Z,1.98
2023-03-26T04:45:17.598Z,2.15
2023-03-26T04:47:46.260Z,1.40
2023-03-26T04:50:13.272Z,1.98
2023-03-26T04:52:41.621Z,1.30
2023-03-26T04:55:25.005Z,2.45
2023-03-26T04:57:57.478Z,2.10
2023-03-26T05:00:24.680Z,1.80
2023-03-26T05:02:53.309Z,2.00
2023-03-26T05:05:20.228Z,1.90
2023-03-26T05:07:46.995Z,1.95
2023-03-26T05:10:16.365Z,1.80
2023-03-26T05:12:43.570Z,1.70
2023-03-26T05:15:12.186Z,1.88
2023-03-26T05:17:42.620Z,1.70
2023-03-26T05:20:22.236Z,2.20
2023-03-26T05:22:50.547Z,3.03
2023-03-26T05:25:18.254Z,2.53
2023-03-26T05:27:45.595Z,2.05
2023-03-26T05:30:18.826Z,2.40
2023-03-26T05:32:48.744Z,3.13
2023-03-26T05:35:19.503Z,2.88
2023-03-26T05:37:47.928Z,2.72
2023-03-26T05:40:17.080Z,2.17
2023-03-26T05:42:45.249Z,2.63
2023-03-26T05:45:14.156Z,3.55
2023-03-26T05:47:41.051Z,3.25
2023-03-26T05:50:09.363Z,3.40
2023-03-26T05:52:36.240Z,4.10
2023-03-26T05:55:03.631Z,2.75
2023-03-26T05:57:31.497Z,3.00
2023-03-26T05:59:58.451Z,3.08
2023-03-26T06:02:25.372Z,2.75
2023-03-26T06:04:52.403Z,2.70
2023-03-26T06:07:19.695Z,2.00
2023-03-26T06:09:46.630Z,2.15
2023-03-26T06:12:14.559Z,2.40
2023-03-26T06:14:45.658Z,3.08
2023-03-26T06:17:12.825Z,2.80
2023-03-26T06:19:39.539Z,2.78
2023-03-26T06:22:06.450Z,1.85
2023-03-26T06:24:34.744Z,2.30
2023-03-26T06:27:01.597Z,2.47
2023-03-26T06:29:28.467Z,2.45
2023-03-26T06:31:55.280Z,1.70
2023-03-26T06:34:22.079Z,2.30
2023-03-26T06:36:49.040Z,2.35
2023-03-26T06:39:16.110Z,2.00
2023-03-26T06:41:42.968Z,2.38
2023-03-26T06:44:11.186Z,2.00
2023-03-26T06:46:38.661Z,2.92
2023-03-26T06:49:05.603Z,2.45
2023-03-26T06:51:32.395Z,2.83
2023-03-26T06:53:59.182Z,1.85
2023-03-26T06:56:26.110Z,2.22
2023-03-26T06:58:52.801Z,2.08
2023-03-26T07:01:19.638Z,2.40
2023-03-26T07:03:46.565Z,2.78
2023-03-26T07:06:13.526Z,2.88
2023-03-26T07:08:40.240Z,2.67
2023-03-26T07:11:07.269Z,3.00
2023-03-26T07:13:34.061Z,3.45
2023-03-26T07:16:00.894Z,3.25
2023-03-26T07:18:27.651Z,3.00
2023-03-26T07:20:54.845Z,2.72
2023-03-26T07:23:22.185Z,3.40
2023-03-26T07:25:49.644Z,3.17
2023-03-26T07:28:37.425Z,2.72
2023-03-26T07:31:06.856Z,2.17
2023-03-26T07:33:48.581Z,2.60
2023-03-26T07:36:36.598Z,2.10
2023-03-26T07:39:28.137Z,2.50
2023-03-26T07:42:37.979Z,2.20
2023-03-26T07:45:26.572Z,2.33
2023-03-26T07:47:53.831Z,2.40
2023-03-26T07:50:23.956Z,2.30
2023-03-26T07:52:51.295Z,2.35
2023-03-26T07:55:19.180Z,2.47
2023-03-26T07:58:17.804Z,2.78
2023-03-26T08:01:47.095Z,2.40
2023-03-26T08:04:44.070Z,2.85
2023-03-26T08:07:53.192Z,2.33
2023-03-26T08:10:43.052Z,3.10
2023-03-26T08:13:36.866Z,2.45
2023-03-26T08:16:23.285Z,2.50
2023-03-26T08:19:30.757Z,2.78
2023-03-26T08:22:27.255Z,3.58
2023-03-26T08:25:33.000Z,2.65
2023-03-26T08:28:25.619Z,2.55
2023-03-26T08:30:55.126Z,2.78
2023-03-26T08:33:26.086Z,2.03
2023-03-26T08:35:52.945Z,2.85
2023-03-26T08:38:20.786Z,3.05
2023-03-26T08:41:08.742Z,3.20
2023-03-26T08:44:16.271Z,2.67
2023-03-26T08:47:15.210Z,2.72
2023-03-26T08:49:53.847Z,3.17
2023-03-26T08:52:56.124Z,3.45
2023-03-26T08:55:52.178Z,3.53
2023-03-26T08:58:41.975Z,3.20
2023-03-26T09:02:10.566Z,2.80
2023-03-26T09:05:26.431Z,2.67
2023-03-26T09:08:23.306Z,2.20
2023-03-26T09:11:27.539Z,2.28
2023-03-26T09:14:21.565Z,2.47
2023-03-26T09:17:19.083Z,2.08
2023-03-26T09:20:25.623Z,2.38
2023-03-26T09:23:31.711Z,1.80
2023-03-26T09:26:25.202Z,1.63
2023-03-26T09:29:19.539Z,1.25
2023-03-26T09:32:17.458Z,1.00
2023-03-26T09:35:13.604Z,0.93
2023-03-26T09:37:58.582Z,0.90
2023-03-26T09:40:49.173Z,0.93
2023-03-26T09:44:05.273Z,1.10
2023-03-26T09:47:08.656Z,1.10
2023-03-26T09:50:19.739Z,1.90
2023-03-26T09:53:10.908Z,1.27
2023-03-26T09:56:22.084Z,1.17
2023-03-26T09:59:23.190Z,1.10
2023-03-26T10:02:04.322Z,0.80
2023-03-26T10:05:17.164Z,1.20
2023-03-26T10:10:57.064Z,0.88
2023-03-26T10:13:42.216Z,1.25
2023-03-26T10:16:34.385Z,1.10
2023-03-26T10:19:56.907Z,1.55
2023-03-26T10:22:44.633Z,1.10
2023-03-26T10:25:36.412Z,1.20
2023-03-26T10:28:29.316Z,1.50
2023-03-26T10:31:17.404Z,1.20
2023-03-26T10:33:57.005Z,1.30
2023-03-26T10:36:37.701Z,1.55
2023-03-26T10:39:39.730Z,1.80
2023-03-26T10:42:32.117Z,1.30
2023-03-26T10:45:39.603Z,1.80
2023-03-26T10:48:31.311Z,1.50
2023-03-26T10:51:15.420Z,1.73
2023-03-26T10:54:10.893Z,1.20
2023-03-26T10:56:46.187Z,0.90
2023-03-26T10:59:15.712Z,1.08
2023-03-26T11:02:16.388Z,1.10
2023-03-26T11:05:00.917Z,1.00
2023-03-26T11:07:54.469Z,1.02
2023-03-26T11:10:56.327Z,0.80
2023-03-26T11:13:53.887Z,0.75
2023-03-26T11:16:58.538Z,0.80
2023-03-26T11:19:54.079Z,0.77
2023-03-26T11:23:03.192Z,1.35
2023-03-26T11:25:56.164Z,0.85
2023-03-26T11:28:29.083Z,1.02
2023-03-26T11:31:42.366Z,1.40
2023-03-26T11:34:18.332Z,1.73
2023-03-26T11:36:53.527Z,1.00
2023-03-26T11:39:56.903Z,1.20
2023-03-26T11:42:25.359Z,1.30
2023-03-26T11:45:07.093Z,1.67
2023-03-26T11:48:04.282Z,1.60
2023-03-26T11:50:36.172Z,2.10
2023-03-26T11:53:16.235Z,1.88
2023-03-26T11:55:59.917Z,1.80
2023-03-26T11:58:36.885Z,1.88
2023-03-26T12:01:14.399Z,2.13
2023-03-26T12:03:41.177Z,1.85
2023-03-26T12:06:25.656Z,1.60
2023-03-26T12:08:54.209Z,1.75
2023-03-26T12:11:28.792Z,1.40
2023-03-26T12:14:00.317Z,1.50
2023-03-26T12:16:27.945Z,1.33
2023-03-26T12:19:22.165Z,1.15
2023-03-26T12:21:52.007Z,1.20
2023-03-26T12:24:33.504Z,1.63
2023-03-26T12:27:22.145Z,1.50
2023-03-26T12:30:00.033Z,1.25
2023-03-26T12:32:43.330Z,1.33
2023-03-26T12:35:27.526Z,1.00
2023-03-26T12:38:35.390Z,1.30
2023-03-26T12:44:51.172Z,1.52
2023-03-26T12:44:53.414Z,1.45
2023-03-26T12:47:59.420Z,1.80
2023-03-26T12:50:35.075Z,1.35
2023-03-26T12:53:19.944Z,1.08
2023-03-26T12:56:38.807Z,1.70
2023-03-26T12:59:11.797Z,1.83
2023-03-26T13:01:53.819Z,1.60
2023-03-26T13:05:04.952Z,1.10
2023-03-26T13:11:19.918Z,0.90
2023-03-26T13:14:39.420Z,1.20
2023-03-26T13:17:34.248Z,1.30
2023-03-26T13:20:27.068Z,1.40
2023-03-26T13:23:29.598Z,1.75
2023-03-26T13:29:25.689Z,1.13
2023-03-26T13:32:25.333Z,1.00
2023-03-26T13:35:16.781Z,0.80
2023-03-26T13:38:24.758Z,0.75
2023-03-26T13:41:27.159Z,0.80
2023-03-26T13:44:02.970Z,0.80
2023-03-26T13:46:41.483Z,0.68
2023-03-26T13:49:12.731Z,0.80
2023-03-26T13:51:58.762Z,0.80
2023-03-26T13:54:47.580Z,1.00
2023-03-26T13:57:24.729Z,0.70
2023-03-26T14:00:09.646Z,1.23
2023-03-26T14:02:40.852Z,1.45
2023-03-26T14:05:21.152Z,1.52
2023-03-26T14:08:01.348Z,1.35
2023-03-26T14:10:35.313Z,1.35
2023-03-26T14:13:16.333Z,1.63
2023-03-26T14:16:10.374Z,1.30
2023-03-26T14:19:26.297Z,1.45
2023-03-26T14:22:02.250Z,1.45
2023-03-26T14:24:49.638Z,1.40
2023-03-26T14:27:52.533Z,1.30
2023-03-26T14:30:37.642Z,1.00
2023-03-26T14:33:51.064Z,1.25
2023-03-26T14:37:05.957Z,1.02
2023-03-26T14:40:23.171Z,0.75
2023-03-26T14:43:29.236Z,0.63
2023-03-26T14:46:46.487Z,0.77
2023-03-26T14:49:51.811Z,0.88
2023-03-26T14:52:31.726Z,0.93
2023-03-26T14:55:04.445Z,0.90
2023-03-26T14:58:03.875Z,0.80
2023-03-26T15:01:15.836Z,0.80
2023-03-26T15:04:47.130Z,0.90
2023-03-26T15:07:30.404Z,0.80
2023-03-26T15:10:23.158Z,1.02
2023-03-26T15:13:32.845Z,0.98
2023-03-26T15:16:22.274Z,1.02
2023-03-26T15:19:03.879Z,1.10
2023-03-26T15:22:18.271Z,1.20
2023-03-26T15:25:19.506Z,1.70
2023-03-26T15:28:11.545Z,1.90
2023-03-26T15:31:36.545Z,2.00
2023-03-26T15:34:30.298Z,2.53
2023-03-26T15:37:44.535Z,2.40
2023-03-26T15:40:58.061Z,2.80
2023-03-26T15:44:22.469Z,2.10
2023-03-26T15:46:38.467Z,2.15
2023-03-26T15:49:37.338Z,2.25
2023-03-26T15:52:28.740Z,3.10
2023-03-26T15:55:27.725Z,4.75
2023-03-26T15:58:15.112Z,3.55
2023-03-26T16:01:02.592Z,2.97
2023-03-26T16:03:41.152Z,2.90
2023-03-26T16:06:30.862Z,2.78
2023-03-26T16:09:33.961Z,3.03
2023-03-26T16:12:16.789Z,3.38
2023-03-26T16:14:48.754Z,3.90
2023-03-26T16:17:25.020Z,3.25
2023-03-26T16:20:32.521Z,3.42
2023-03-26T16:23:04.582Z,3.50
2023-03-26T16:28:30.237Z,3.72
2023-03-26T16:31:23.407Z,3.47
2023-03-26T16:34:26.151Z,3.92
2023-03-26T16:36:54.174Z,3.80
2023-03-26T16:39:38.447Z,4.70
2023-03-26T16:42:29.695Z,5.13
2023-03-26T16:45:29.863Z,5.70
2023-03-26T16:48:56.463Z,5.85
2023-03-26T16:51:39.721Z,4.85
2023-03-26T16:54:24.534Z,5.45
2023-03-26T16:57:01.178Z,4.63
2023-03-26T17:00:07.998Z,5.55
2023-03-26T17:02:42.666Z,4.57
2023-03-26T17:05:34.230Z,5.18
2023-03-26T17:08:16.394Z,3.03
2023-03-26T17:11:26.446Z,4.22
2023-03-26T17:14:32.957Z,4.60
2023-03-26T17:17:36.833Z,5.00
2023-03-26T17:20:32.932Z,3.75
2023-03-26T17:23:27.174Z,3.25
2023-03-26T17:26:16.431Z,2.63
2023-03-26T17:28:56.073Z,3.20
2023-03-26T17:32:02.156Z,2.67
2023-03-26T17:34:38.002Z,3.28
2023-03-26T17:37:21.678Z,2.92
2023-03-26T17:40:51.524Z,2.30
2023-03-26T17:43:50.645Z,1.58
2023-03-26T17:46:45.073Z,2.40
2023-03-26T17:49:13.607Z,1.85
2023-03-26T17:52:01.513Z,2.60
2023-03-26T17:54:47.595Z,2.28
2023-03-26T17:57:28.063Z,2.63
2023-03-26T18:00:00.805Z,2.58
2023-03-26T18:02:39.348Z,2.72
2023-03-26T18:05:13.026Z,2.30
2023-03-26T18:08:35.947Z,2.70
2023-03-26T18:13:50.319Z,2.72
2023-03-26T18:16:36.339Z,2.20
2023-03-26T18:19:18.818Z,1.70
2023-03-26T18:21:50.116Z,2.17
2023-03-26T18:24:30.340Z,1.92
2023-03-26T18:27:08.762Z,2.45
2023-03-26T18:29:37.530Z,2.38
2023-03-26T18:32:23.067Z,1.90
2023-03-26T18:34:57.748Z,2.20
2023-03-26T18:37:38.578Z,2.22
2023-03-26T18:40:21.455Z,2.92
2023-03-26T18:42:52.398Z,2.38
2023-03-26T18:45:34.523Z,2.17
2023-03-26T18:48:05.524Z,2.33
2023-03-26T18:50:40.839Z,3.20
2023-03-26T18:53:17.933Z,1.65
2023-03-26T18:55:45.200Z,2.40
2023-03-26T18:58:29.876Z,2.10
2023-03-26T19:01:20.094Z,2.05
2023-03-26T19:03:53.424Z,1.63
2023-03-26T19:06:20.875Z,1.80
2023-03-26T19:08:48.447Z,2.40
2023-03-26T19:11:17.714Z,2.40
2023-03-26T19:13:46.741Z,1.80
2023-03-26T19:16:26.479Z,2.28
2023-03-26T19:18:53.605Z,2.60
2023-03-26T19:21:23.189Z,1.70
2023-03-26T19:23:52.446Z,2.08
2023-03-26T19:26:19.520Z,1.67
2023-03-26T19:28:51.328Z,2.22
2023-03-26T19:31:24.635Z,2.70
2023-03-26T19:34:01.839Z,1.80
2023-03-26T19:36:34.482Z,1.58
2023-03-26T19:39:01.954Z,1.98
2023-03-26T19:41:37.156Z,1.38
2023-03-26T19:44:21.050Z,2.17
2023-03-26T19:46:54.068Z,1.77
2023-03-26T19:49:42.360Z,2.17
2023-03-26T19:52:19.256Z,1.52
2023-03-26T19:55:01.511Z,1.75
2023-03-26T19:59:57.346Z,1.42
2023-03-26T20:02:25.191Z,1.50
2023-03-26T20:04:52.214Z,1.65
2023-03-26T20:07:22.055Z,1.70
2023-03-26T20:10:05.275Z,1.40
2023-03-26T20:12:32.085Z,1.60
2023-03-26T20:15:19.592Z,1.40
2023-03-26T20:17:49.835Z,1.42
2023-03-26T20:20:17.356Z,2.20
2023-03-26T20:22:46.866Z,0.95
2023-03-26T20:25:31.146Z,1.15
2023-03-26T20:27:58.976Z,1.20
2023-03-26T20:30:37.561Z,1.30
2023-03-26T20:33:11.831Z,1.42
2023-03-26T20:35:40.944Z,1.60
2023-03-26T20:38:09.358Z,1.33
2023-03-26T20:40:36.240Z,2.15
2023-03-26T20:43:03.043Z,1.52
2023-03-26T20:45:29.882Z,2.00
2023-03-26T20:47:57.283Z,1.58
2023-03-26T20:50:24.288Z,1.15
2023-03-26T20:52:51.050Z,1.05
2023-03-26T20:55:23.031Z,1.75
2023-03-26T20:57:50.901Z,1.17
2023-03-26T21:00:20.009Z,1.52
2023-03-26T21:02:49.061Z,1.08
2023-03-26T21:05:18.859Z,1.02
2023-03-26T21:07:46.183Z,1.30
2023-03-26T21:10:14.581Z,1.42
2023-03-26T21:12:49.026Z,1.98
2023-03-26T21:15:23.033Z,1.30
2023-03-26T21:17:51.869Z,1.20
2023-03-26T21:20:23.244Z,1.23
2023-03-26T21:23:31.518Z,1.23
2023-03-26T21:26:31.232Z,1.25
2023-03-26T21:28:59.176Z,1.00
2023-03-26T21:31:28.365Z,1.63
2023-03-26T21:33:56.751Z,1.00
2023-03-26T21:36:24.117Z,1.00
2023-03-26T21:38:54.519Z,1.38
2023-03-26T21:41:45.663Z,1.42
2023-03-26T21:44:14.167Z,1.42
2023-03-26T21:46:46.544Z,1.23
2023-03-26T21:49:16.256Z,1.05
2023-03-26T21:51:43.814Z,0.93
2023-03-26T21:54:29.543Z,1.00
2023-03-26T21:57:59.460Z,1.48
2023-03-26T22:00:54.124Z,1.40
2023-03-26T22:03:37.757Z,0.98
2023-03-26T22:06:16.087Z,0.70
2023-03-26T22:08:43.153Z,0.90
2023-03-26T22:11:12.118Z,1.30
2023-03-26T22:13:39.085Z,1.02
2023-03-26T22:16:08.441Z,0.90
2023-03-26T22:18:35.273Z,1.48
2023-03-26T22:21:02.376Z,1.00
2023-03-26T22:23:35.984Z,0.95
2023-03-26T22:26:04.052Z,1.55
2023-03-26T22:28:31.395Z,1.00
2023-03-26T22:30:58.997Z,1.27
2023-03-26T22:33:26.568Z,1.15
2023-03-26T22:35:55.605Z,1.05
2023-03-26T22:38:22.890Z,0.90
2023-03-26T22:40:56.872Z,1.27
2023-03-26T22:43:23.896Z,1.73
2023-03-26T22:45:53.522Z,0.80
2023-03-26T22:48:22.198Z,1.00
2023-03-26T22:51:07.989Z,1.13
2023-03-26T22:53:35.918Z,1.20
2023-03-26T22:56:04.089Z,1.10
2023-03-26T22:58:33.049Z,1.48
2023-03-26T23:01:11.732Z,1.15
2023-03-26T23:03:39.366Z,1.65
2023-03-26T23:06:09.616Z,0.93
2023-03-26T23:08:37.922Z,1.52
2023-03-26T23:11:23.417Z,1.20
2023-03-26T23:13:51.045Z,1.02
2023-03-26T23:16:18.864Z,1.27
2023-03-26T23:18:45.602Z,1.23
2023-03-26T23:21:21.319Z,1.15
2023-03-26T23:23:50.205Z,0.95
2023-03-26T23:26:17.032Z,1.33
2023-03-26T23:28:44.620Z,1.15
2023-03-26T23:31:12.912Z,1.35
2023-03-26T23:33:45.957Z,1.13
2023-03-26T23:36:17.390Z,1.15
2023-03-26T23:38:48.221Z,1.02
2023-03-26T23:41:21.650Z,0.88
2023-03-26T23:43:56.301Z,1.00
2023-03-26T23:46:30.614Z,1.40
2023-03-26T23:48:59.656Z,0.70
2023-03-26T23:51:26.751Z,0.88
2023-03-26T23:53:53.958Z,1.15
2023-03-26T23:56:21.089Z,0.80
2023-03-26T23:58:48.754Z,1.60
